Time,TemperatureF,DewpointF,PressureIn,WindDirection,WindDirectionDegrees,WindSpeedMPH,WindSpeedGustMPH,Humidity,HourlyPrecipIn,Conditions,Clouds,dailyrainin,SolarRadiationWatts/m^2,SoftwareType,DateUTC
2013-02-11 00:01:00,24.0,23.0,-100.00,North,3,6.0,9.0,94,0.00,,,0.09,3.000000,,2013-02-11 08:01:00,
2013-02-11 00:11:00,24.0,23.0,-100.00,North,3,6.0,9.0,94,0.00,,,0.09,3.000000,,2013-02-11 08:11:00,
2013-02-11 00:42:00,24.0,23.0,-100.00,North,3,6.0,10.0,97,0.00,,,0.09,3.000000,,2013-02-11 08:42:00,
2013-02-11 00:52:00,24.0,23.0,-100.00,North,3,6.0,10.0,97,0.00,,,0.09,3.000000,,2013-02-11 08:52:00,
2013-02-11 01:01:00,24.0,23.0,-100.00,North,3,6.0,10.0,97,0.00,,,0.09,3.000000,,2013-02-11 09:01:00,
2013-02-11 01:12:00,24.0,23.0,-100.00,North,3,6.0,10.0,97,0.00,,,0.09,3.000000,,2013-02-11 09:12:00,
2013-02-11 01:42:00,23.0,22.0,-100.00,North,3,13.0,19.0,96,0.00,,,0.09,3.000000,,2013-02-11 09:42:00,
2013-02-11 01:52:00,23.0,22.0,-100.00,North,3,13.0,19.0,96,0.00,,,0.09,3.000000,,2013-02-11 09:52:00,
2013-02-11 02:01:00,23.0,22.0,-100.00,North,3,13.0,19.0,96,0.00,,,0.09,3.000000,,2013-02-11 10:01:00,
2013-02-11 02:11:00,23.0,22.0,-100.00,North,3,13.0,19.0,96,0.00,,,0.09,3.000000,,2013-02-11 10:11:00,
2013-02-11 02:42:00,22.0,19.0,-100.00,North,3,15.0,20.0,89,0.00,,,0.09,3.000000,,2013-02-11 10:42:00,
2013-02-11 02:52:00,22.0,19.0,-100.00,North,3,15.0,20.0,89,0.00,,,0.09,3.000000,,2013-02-11 10:52:00,
2013-02-11 03:01:00,22.0,19.0,-100.00,North,3,15.0,20.0,89,0.00,,,0.09,3.000000,,2013-02-11 11:01:00,
2013-02-11 03:11:00,22.0,19.0,-100.00,North,3,15.0,20.0,89,0.00,,,0.09,3.000000,,2013-02-11 11:11:00,
2013-02-11 03:42:00,22.0,19.0,-100.00,North,3,16.0,21.0,88,0.00,,,-99.99,3.000000,,2013-02-11 11:42:00,
2013-02-11 03:52:00,22.0,19.0,-100.00,North,3,16.0,21.0,88,0.00,,,-99.99,3.000000,,2013-02-11 11:52:00,
2013-02-11 04:02:00,22.0,19.0,-100.00,North,3,16.0,21.0,88,0.00,,,-99.99,3.000000,,2013-02-11 12:02:00,
2013-02-11 04:12:00,22.0,19.0,-100.00,North,3,16.0,21.0,88,0.00,,,-99.99,3.000000,,2013-02-11 12:12:00,
2013-02-11 04:42:00,21.0,19.0,-100.00,North,3,15.0,21.0,90,0.00,,,-99.99,3.000000,,2013-02-11 12:42:00,
2013-02-11 04:52:00,21.0,19.0,-100.00,North,3,15.0,21.0,90,0.00,,,-99.99,3.000000,,2013-02-11 12:52:00,
2013-02-11 05:01:00,21.0,19.0,-100.00,North,3,15.0,21.0,90,0.00,,,-99.99,3.000000,,2013-02-11 13:01:00,
2013-02-11 05:11:00,21.0,19.0,-100.00,North,3,15.0,21.0,90,0.00,,,-99.99,3.000000,,2013-02-11 13:11:00,
2013-02-11 05:42:00,20.0,18.0,-100.00,North,3,16.0,23.0,91,0.00,,,-99.99,3.000000,,2013-02-11 13:42:00,
2013-02-11 05:52:00,20.0,18.0,-100.00,North,3,16.0,23.0,91,0.00,,,-99.99,3.000000,,2013-02-11 13:52:00,
2013-02-11 06:01:00,20.0,18.0,-100.00,North,3,16.0,23.0,91,0.00,,,-99.99,3.000000,,2013-02-11 14:01:00,
2013-02-11 06:11:00,20.0,18.0,-100.00,North,3,16.0,23.0,91,0.00,,,-99.99,3.000000,,2013-02-11 14:11:00,
2013-02-11 06:42:00,20.0,16.0,-100.00,North,3,18.0,24.0,85,0.00,,,0.09,3.000000,,2013-02-11 14:42:00,
2013-02-11 06:53:00,20.0,16.0,-100.00,North,3,18.0,24.0,85,0.00,,,0.09,3.000000,,2013-02-11 14:53:00,
2013-02-11 07:01:00,20.0,16.0,-100.00,North,3,18.0,24.0,85,0.00,,,0.09,3.000000,,2013-02-11 15:01:00,
2013-02-11 07:11:00,20.0,16.0,-100.00,North,3,18.0,24.0,85,0.00,,,0.09,3.000000,,2013-02-11 15:11:00,
2013-02-11 07:42:00,20.0,16.0,-100.00,North,3,20.0,27.0,84,0.00,,,0.09,23.000000,,2013-02-11 15:42:00,
2013-02-11 07:52:00,20.0,16.0,-100.00,North,3,20.0,27.0,84,0.00,,,0.09,23.000000,,2013-02-11 15:52:00,
2013-02-11 08:01:00,20.0,16.0,-100.00,North,3,20.0,27.0,84,0.00,,,0.09,23.000000,,2013-02-11 16:01:00,
2013-02-11 08:11:00,20.0,16.0,-100.00,North,3,20.0,27.0,84,0.00,,,0.09,23.000000,,2013-02-11 16:11:00,
2013-02-11 08:42:00,22.0,16.0,-100.00,North,3,17.0,26.0,76,0.00,,,0.09,222.000000,,2013-02-11 16:42:00,
2013-02-11 08:52:00,22.0,16.0,-100.00,North,3,17.0,26.0,76,0.00,,,0.09,222.000000,,2013-02-11 16:52:00,
2013-02-11 09:01:00,22.0,16.0,-100.00,North,3,17.0,26.0,76,0.00,,,0.09,222.000000,,2013-02-11 17:01:00,
2013-02-11 09:11:00,22.0,16.0,-100.00,North,3,17.0,26.0,76,0.00,,,0.09,222.000000,,2013-02-11 17:11:00,
2013-02-11 09:42:00,24.0,15.0,-100.00,North,3,18.0,28.0,69,0.00,,,0.08,465.000000,,2013-02-11 17:42:00,
2013-02-11 09:52:00,24.0,15.0,-100.00,North,3,18.0,28.0,69,0.00,,,0.08,465.000000,,2013-02-11 17:52:00,
2013-02-11 10:01:00,24.0,15.0,-100.00,North,3,18.0,28.0,69,0.00,,,0.08,465.000000,,2013-02-11 18:01:00,
2013-02-11 10:11:00,24.0,15.0,-100.00,North,3,18.0,28.0,69,0.00,,,0.08,465.000000,,2013-02-11 18:11:00,
2013-02-11 10:42:00,26.0,13.0,-100.00,North,3,19.0,32.0,58,0.01,,,0.08,673.000000,,2013-02-11 18:42:00,
2013-02-11 10:53:00,26.0,13.0,-100.00,North,3,19.0,32.0,58,0.01,,,0.08,673.000000,,2013-02-11 18:53:00,
2013-02-11 11:01:00,26.0,13.0,-100.00,North,3,19.0,32.0,58,0.01,,,0.08,673.000000,,2013-02-11 19:01:00,
2013-02-11 11:11:00,26.0,13.0,-100.00,North,3,19.0,32.0,58,0.01,,,0.08,673.000000,,2013-02-11 19:11:00,
2013-02-11 12:42:00,29.0,11.0,-100.00,North,2,20.0,30.0,46,-99.99,,,0.02,891.000000,,2013-02-11 20:42:00,
2013-02-11 12:52:00,29.0,11.0,-100.00,North,2,20.0,30.0,46,-99.99,,,0.02,891.000000,,2013-02-11 20:52:00,
2013-02-11 13:02:00,29.0,11.0,-100.00,North,2,20.0,30.0,46,-99.99,,,0.02,891.000000,,2013-02-11 21:02:00,
2013-02-11 13:11:00,29.0,11.0,-100.00,North,2,20.0,30.0,46,-99.99,,,0.02,891.000000,,2013-02-11 21:11:00,
2013-02-11 13:42:00,31.0,11.0,-100.00,North,2,17.0,31.0,42,0.00,,,0.01,874.000000,,2013-02-11 21:42:00,
2013-02-11 13:52:00,31.0,11.0,-100.00,North,2,17.0,31.0,42,0.00,,,0.01,874.000000,,2013-02-11 21:52:00,
2013-02-11 14:01:00,31.0,11.0,-100.00,North,2,17.0,31.0,42,0.00,,,0.01,874.000000,,2013-02-11 22:01:00,
2013-02-11 14:11:00,31.0,11.0,-100.00,North,2,17.0,31.0,42,0.00,,,0.01,874.000000,,2013-02-11 22:11:00,
2013-02-11 14:42:00,31.0,7.0,-100.00,North,2,18.0,34.0,35,0.00,,,0.01,794.000000,,2013-02-11 22:42:00,
2013-02-11 14:52:00,31.0,7.0,-100.00,North,2,18.0,34.0,35,0.00,,,0.01,794.000000,,2013-02-11 22:52:00,
2013-02-11 15:01:00,31.0,7.0,-100.00,North,2,18.0,34.0,35,0.00,,,0.01,794.000000,,2013-02-11 23:01:00,
2013-02-11 15:11:00,31.0,7.0,-100.00,North,2,18.0,34.0,35,0.00,,,0.01,794.000000,,2013-02-11 23:11:00,
2013-02-11 15:32:00,30.0,2.0,-100.00,North,2,18.0,27.0,30,0.00,,,0.01,642.000000,,2013-02-11 23:32:00,
2013-02-11 15:42:00,30.0,2.0,-100.00,North,2,18.0,27.0,30,0.00,,,0.01,642.000000,,2013-02-11 23:42:00,
2013-02-11 15:52:00,30.0,2.0,-100.00,North,2,18.0,27.0,30,0.00,,,0.01,642.000000,,2013-02-11 23:52:00,
2013-02-11 16:01:00,30.0,2.0,-100.00,North,2,18.0,27.0,30,0.00,,,0.01,642.000000,,2013-02-12 00:01:00,
2013-02-11 16:11:00,30.0,2.0,-100.00,North,2,18.0,27.0,30,0.00,,,0.01,642.000000,,2013-02-12 00:11:00,
2013-02-11 16:42:00,29.0,1.0,-100.00,North,2,18.0,28.0,30,0.00,,,0.01,430.000000,,2013-02-12 00:42:00,
2013-02-11 16:52:00,29.0,1.0,-100.00,North,2,18.0,28.0,30,0.00,,,0.01,430.000000,,2013-02-12 00:52:00,
2013-02-11 17:01:00,29.0,1.0,-100.00,North,2,18.0,28.0,30,0.00,,,0.01,430.000000,,2013-02-12 01:01:00,
2013-02-11 17:11:00,29.0,1.0,-100.00,North,2,18.0,28.0,30,0.00,,,0.01,430.000000,,2013-02-12 01:11:00,
2013-02-11 17:42:00,26.0,-1.0,-100.00,North,3,16.0,28.0,30,0.00,,,0.01,154.000000,,2013-02-12 01:42:00,
2013-02-11 17:52:00,26.0,-1.0,-100.00,North,3,16.0,28.0,30,0.00,,,0.01,154.000000,,2013-02-12 01:52:00,
2013-02-11 18:01:00,26.0,-1.0,-100.00,North,3,16.0,28.0,30,0.00,,,0.01,154.000000,,2013-02-12 02:01:00,
2013-02-11 18:11:00,26.0,-1.0,-100.00,North,3,16.0,28.0,30,0.00,,,0.01,154.000000,,2013-02-12 02:11:00,
2013-02-11 18:42:00,25.0,-1.0,-100.00,North,3,19.0,26.0,32,0.00,,,0.01,5.000000,,2013-02-12 02:42:00,
2013-02-11 18:52:00,25.0,-1.0,-100.00,North,3,19.0,26.0,32,0.00,,,0.01,5.000000,,2013-02-12 02:52:00,
2013-02-11 19:02:00,25.0,-1.0,-100.00,North,3,19.0,26.0,32,0.00,,,0.01,5.000000,,2013-02-12 03:02:00,
2013-02-11 19:11:00,25.0,-1.0,-100.00,North,3,19.0,26.0,32,0.00,,,0.01,5.000000,,2013-02-12 03:11:00,
2013-02-11 19:32:00,25.0,-1.0,-100.00,North,3,22.0,31.0,32,0.00,,,0.01,2.000000,,2013-02-12 03:32:00,
2013-02-11 19:42:00,25.0,-1.0,-100.00,North,3,22.0,31.0,32,0.00,,,0.01,2.000000,,2013-02-12 03:42:00,
2013-02-11 19:52:00,25.0,-1.0,-100.00,North,3,22.0,31.0,32,0.00,,,0.01,2.000000,,2013-02-12 03:52:00,
2013-02-11 20:01:00,25.0,-1.0,-100.00,North,3,22.0,31.0,32,0.00,,,0.01,2.000000,,2013-02-12 04:01:00,
2013-02-11 20:11:00,25.0,-1.0,-100.00,North,3,22.0,31.0,32,0.00,,,0.01,2.000000,,2013-02-12 04:11:00,
2013-02-11 20:32:00,26.0,-3.0,-100.00,North,3,19.0,30.0,27,0.00,,,0.01,2.000000,,2013-02-12 04:32:00,
2013-02-11 20:42:00,26.0,-3.0,-100.00,North,3,19.0,30.0,27,0.00,,,0.01,2.000000,,2013-02-12 04:42:00,
2013-02-11 20:52:00,26.0,-3.0,-100.00,North,3,19.0,30.0,27,0.00,,,0.01,2.000000,,2013-02-12 04:52:00,
2013-02-11 21:01:00,26.0,-3.0,-100.00,North,3,19.0,30.0,27,0.00,,,0.01,2.000000,,2013-02-12 05:01:00,
2013-02-11 21:11:00,26.0,-3.0,-100.00,North,3,19.0,30.0,27,0.00,,,0.01,2.000000,,2013-02-12 05:11:00,
2013-02-11 21:42:00,27.0,-2.0,-100.00,North,3,21.0,31.0,27,0.00,,,-99.99,2.000000,,2013-02-12 05:42:00,
2013-02-11 21:52:00,27.0,-2.0,-100.00,North,3,21.0,31.0,27,0.00,,,-99.99,2.000000,,2013-02-12 05:52:00,
2013-02-11 22:01:00,27.0,-2.0,-100.00,North,3,21.0,31.0,27,0.00,,,-99.99,2.000000,,2013-02-12 06:01:00,
2013-02-11 22:12:00,27.0,-2.0,-100.00,North,3,21.0,31.0,27,0.00,,,-99.99,2.000000,,2013-02-12 06:12:00,
2013-02-11 22:32:00,27.0,-2.0,-100.00,North,3,18.0,31.0,28,0.00,,,0.01,2.000000,,2013-02-12 06:32:00,
2013-02-11 22:42:00,27.0,-2.0,-100.00,North,3,18.0,31.0,28,0.00,,,0.01,2.000000,,2013-02-12 06:42:00,
2013-02-11 22:52:00,27.0,-2.0,-100.00,North,3,18.0,31.0,28,0.00,,,0.01,2.000000,,2013-02-12 06:52:00,
2013-02-11 23:01:00,27.0,-2.0,-100.00,North,3,18.0,31.0,28,0.00,,,0.01,2.000000,,2013-02-12 07:01:00,
2013-02-11 23:11:00,27.0,-2.0,-100.00,North,3,18.0,31.0,28,0.00,,,0.01,2.000000,,2013-02-12 07:11:00,
2013-02-11 23:42:00,27.0,-2.0,-100.00,North,3,15.0,23.0,28,0.00,,,0.01,2.000000,,2013-02-12 07:42:00,
2013-02-11 23:52:00,27.0,-2.0,-100.00,North,3,15.0,23.0,28,0.00,,,0.01,2.000000,,2013-02-12 07:52:00,